地図

経路データ

SID SEASON NUMBER BASIN SUBBASIN NAME ISO_TIME NATURE LAT LON WMO_WIND WMO_PRES WMO_AGENCY TRACK_TYPE DIST2LAND LANDFALL IFLAG USA_AGENCY USA_ATCF_ID USA_LAT USA_LON USA_RECORD USA_STATUS USA_WIND USA_PRES USA_SSHS USA_R34_NE USA_R34_SE USA_R34_SW USA_R34_NW USA_R50_NE USA_R50_SE USA_R50_SW USA_R50_NW USA_R64_NE USA_R64_SE USA_R64_SW USA_R64_NW USA_POCI USA_ROCI USA_RMW USA_EYE TOKYO_LAT TOKYO_LON TOKYO_GRADE TOKYO_WIND TOKYO_PRES TOKYO_R50_DIR TOKYO_R50_LONG TOKYO_R50_SHORT TOKYO_R30_DIR TOKYO_R30_LONG TOKYO_R30_SHORT TOKYO_LAND CMA_LAT CMA_LON CMA_CAT CMA_WIND CMA_PRES HKO_LAT HKO_LON HKO_CAT HKO_WIND HKO_PRES NEWDELHI_LAT NEWDELHI_LON NEWDELHI_GRADE NEWDELHI_WIND NEWDELHI_PRES NEWDELHI_CI NEWDELHI_DP NEWDELHI_POCI REUNION_LAT REUNION_LON REUNION_TYPE REUNION_WIND REUNION_PRES REUNION_TNUM REUNION_CI REUNION_RMW REUNION_R34_NE REUNION_R34_SE REUNION_R34_SW REUNION_R34_NW REUNION_R50_NE REUNION_R50_SE REUNION_R50_SW REUNION_R50_NW REUNION_R64_NE REUNION_R64_SE REUNION_R64_SW REUNION_R64_NW BOM_LAT BOM_LON BOM_TYPE BOM_WIND BOM_PRES BOM_TNUM BOM_CI BOM_RMW BOM_R34_NE BOM_R34_SE BOM_R34_SW BOM_R34_NW BOM_R50_NE BOM_R50_SE BOM_R50_SW BOM_R50_NW BOM_R64_NE BOM_R64_SE BOM_R64_SW BOM_R64_NW BOM_ROCI BOM_POCI BOM_EYE BOM_POS_METHOD BOM_PRES_METHOD NADI_LAT NADI_LON NADI_CAT NADI_WIND NADI_PRES WELLINGTON_LAT WELLINGTON_LON WELLINGTON_WIND WELLINGTON_PRES DS824_LAT DS824_LON DS824_STAGE DS824_WIND DS824_PRES TD9636_LAT TD9636_LON TD9636_STAGE TD9636_WIND TD9636_PRES TD9635_LAT TD9635_LON TD9635_WIND TD9635_PRES TD9635_ROCI NEUMANN_LAT NEUMANN_LON NEUMANN_CLASS NEUMANN_WIND NEUMANN_PRES MLC_LAT MLC_LON MLC_CLASS MLC_WIND MLC_PRES USA_GUST BOM_GUST BOM_GUST_PER REUNION_GUST REUNION_GUST_PER USA_SEAHGT USA_SEARAD_NE USA_SEARAD_SE USA_SEARAD_SW USA_SEARAD_NW STORM_SPEED STORM_DIR
1864102S07069 1864 5 SI MM NOT_NAMED 1864-04-11 06:00:00 NR -6.80000 68.7000 reunion main 1904 1902 _____O________ -1 -6.80000 68.7000 99 9.90000 4 131
1864102S07069 1864 5 SI MM NOT_NAMED 1864-04-11 09:00:00 NR -6.92921 68.8506 main 1908 1898 _____P________ -1 -6.92921 68.8506 99 4 131
1864102S07069 1864 5 SI MM NOT_NAMED 1864-04-11 12:00:00 NR -7.05800 69.0012 main 1898 1896 _____P________ -1 -7.05800 69.0012 99 4 131
1864102S07069 1864 5 SI MM NOT_NAMED 1864-04-11 15:00:00 NR -7.18597 69.1518 main 1903 1894 _____P________ -1 -7.18597 69.1518 99 4 131
1864102S07069 1864 5 SI MM NOT_NAMED 1864-04-11 18:00:00 NR -7.31273 69.3021 main 1901 1900 _____P________ -1 -7.31273 69.3021 99 4 130
1864102S07069 1864 5 SI MM NOT_NAMED 1864-04-11 21:00:00 NR -7.43790 69.4522 main 1907 1897 _____P________ -1 -7.43790 69.4522 99 4 130
1864102S07069 1864 5 SI MM NOT_NAMED 1864-04-12 00:00:00 NR -7.56109 69.6020 main 1897 1896 _____P________ -1 -7.56109 69.6020 99 4 130
1864102S07069 1864 5 SI MM NOT_NAMED 1864-04-12 03:00:00 NR -7.68192 69.7512 main 1904 1895 _____P________ -1 -7.68192 69.7512 99 4 129
1864102S07069 1864 5 SI MM NOT_NAMED 1864-04-12 06:00:00 NR -7.80000 69.9000 reunion main 1903 1902 _____O________ -1 -7.80000 69.9000 99 9.90000 4 128
1864102S07069 1864 5 SI MM NOT_NAMED 1864-04-12 09:00:00 NR -7.91514 70.0484 main 1902 1901 _____P________ -1 -7.91514 70.0484 99 4 128
1864102S07069 1864 5 SI MM NOT_NAMED 1864-04-12 12:00:00 NR -8.02795 70.1977 main 1909 1901 _____P________ -1 -8.02795 70.1977 99 4 127
1864102S07069 1864 5 SI MM NOT_NAMED 1864-04-12 15:00:00 NR -8.13921 70.3496 main 1909 1908 _____P________ -1 -8.13921 70.3496 99 4 126
1864102S07069 1864 5 SI MM NOT_NAMED 1864-04-12 18:00:00 NR -8.24972 70.5054 main 1916 1908 _____P________ -1 -8.24972 70.5054 99 4 125
1864102S07069 1864 5 SI MM NOT_NAMED 1864-04-12 21:00:00 NR -8.36027 70.6668 main 1916 1916 _____P________ -1 -8.36027 70.6668 99 4 124
1864102S07069 1864 5 SI MM NOT_NAMED 1864-04-13 00:00:00 NR -8.47164 70.8353 main 1916 1916 _____P________ -1 -8.47164 70.8353 99 4 123
1864102S07069 1864 5 SI MM NOT_NAMED 1864-04-13 03:00:00 NR -8.58463 71.0125 main 1924 1924 _____P________ -1 -8.58463 71.0125 99 4 122
1864102S07069 1864 5 SI MM NOT_NAMED 1864-04-13 06:00:00 NR -8.70000 71.2000 reunion main 1932 1926 _____O________ -1 -8.70000 71.2000 99 9.90000 5 121
1864102S07069 1864 5 SI MM NOT_NAMED 1864-04-13 09:00:00 NR -8.82620 71.4131 main 1930 1928 _____P________ -1 -8.82620 71.4131 99 5 120
1864102S07069 1864 5 SI MM NOT_NAMED 1864-04-13 12:00:00 NR -8.95521 71.6382 main 1938 1927 _____P________ -1 -8.95521 71.6382 99 5 120
1864102S07069 1864 5 SI MM NOT_NAMED 1864-04-13 15:00:00 NR -9.08545 71.8710 main 1931 1926 _____P________ -1 -9.08545 71.8710 99 5 119
1864102S07069 1864 5 SI MM NOT_NAMED 1864-04-13 18:00:00 NR -9.21532 72.1072 main 1930 1925 _____P________ -1 -9.21532 72.1072 99 5 119
1864102S07069 1864 5 SI MM NOT_NAMED 1864-04-13 21:00:00 NR -9.34327 72.3425 main 1930 1930 _____P________ -1 -9.34327 72.3425 99 5 119
1864102S07069 1864 5 SI MM NOT_NAMED 1864-04-14 00:00:00 NR -9.46773 72.5726 main 1935 1930 _____P________ -1 -9.46773 72.5726 99 5 119
1864102S07069 1864 5 SI MM NOT_NAMED 1864-04-14 03:00:00 NR -9.58715 72.7932 main 1935 1931 _____P________ -1 -9.58715 72.7932 99 5 119
1864102S07069 1864 5 SI MM NOT_NAMED 1864-04-14 06:00:00 NR -9.70000 73.0000 reunion main 1936 1931 _____O________ -1 -9.70000 73.0000 99 9.90000 4 119
1864102S07069 1864 5 SI MM NOT_NAMED 1864-04-14 09:00:00 NR -9.79935 73.1781 main 1937 1933 _____P________ -1 -9.79935 73.1781 99 4 120
1864102S07069 1864 5 SI MM NOT_NAMED 1864-04-14 12:00:00 NR -9.89218 73.3435 main 1943 1938 _____P________ -1 -9.89218 73.3435 99 4 120
1864102S07069 1864 5 SI MM NOT_NAMED 1864-04-14 15:00:00 NR -9.98008 73.4985 main 1944 1940 _____P________ -1 -9.98008 73.4985 99 3 120
1864102S07069 1864 5 SI MM NOT_NAMED 1864-04-14 18:00:00 NR -10.0646 73.6454 main 1950 1942 _____P________ -1 -10.0646 73.6454 99 3 121
1864102S07069 1864 5 SI MM NOT_NAMED 1864-04-14 21:00:00 NR -10.1473 73.7867 main 1942 1942 _____P________ -1 -10.1473 73.7867 99 3 121
1864102S07069 1864 5 SI MM NOT_NAMED 1864-04-15 00:00:00 NR -10.2297 73.9247 main 1948 1944 _____P________ -1 -10.2297 73.9247 99 3 121
1864102S07069 1864 5 SI MM NOT_NAMED 1864-04-15 03:00:00 NR -10.3135 74.0616 main 1951 1951 _____P________ -1 -10.3135 74.0616 99 3 122
1864102S07069 1864 5 SI MM NOT_NAMED 1864-04-15 06:00:00 NR -10.4000 74.2000 reunion main 1958 1954 _____O________ -1 -10.4000 74.2000 99 9.90000 3 124
1864102S07069 1864 5 SI MM NOT_NAMED 1864-04-15 09:00:00 NR -10.4913 74.3330 main 1964 1961 _____P________ -1 -10.4913 74.3330 99 3 125
1864102S07069 1864 5 SI MM NOT_NAMED 1864-04-15 12:00:00 NR -10.5843 74.4638 main 1967 1964 _____P________ -1 -10.5843 74.4638 99 3 126
1864102S07069 1864 5 SI MM NOT_NAMED 1864-04-15 15:00:00 NR -10.6794 74.5960 main 1974 1971 _____P________ -1 -10.6794 74.5960 99 3 126
1864102S07069 1864 5 SI MM NOT_NAMED 1864-04-15 18:00:00 NR -10.7769 74.7331 main 1982 1978 _____P________ -1 -10.7769 74.7331 99 3 126
1864102S07069 1864 5 SI MM NOT_NAMED 1864-04-15 21:00:00 NR -10.8773 74.8785 main 1985 1982 _____P________ -1 -10.8773 74.8785 99 4 125
1864102S07069 1864 5 SI MM NOT_NAMED 1864-04-16 00:00:00 NR -10.9811 75.0358 main 1992 1989 _____P________ -1 -10.9811 75.0358 99 4 123
1864102S07069 1864 5 SI MM NOT_NAMED 1864-04-16 03:00:00 NR -11.0885 75.2085 main 1996 1993 _____P________ -1 -11.0885 75.2085 99 4 121
1864102S07069 1864 5 SI MM NOT_NAMED 1864-04-16 06:00:00 NR -11.2000 75.4000 reunion main 2000 1997 _____O________ -1 -11.2000 75.4000 99 9.90000 5 119
1864102S07069 1864 5 SI MM NOT_NAMED 1864-04-16 09:00:00 NR -11.3197 75.6282 main 2005 2002 _____P________ -1 -11.3197 75.6282 99 5 118
1864102S07069 1864 5 SI MM NOT_NAMED 1864-04-16 12:00:00 NR -11.4441 75.8763 main 2007 2007 _____P________ -1 -11.4441 75.8763 99 6 117
1864102S07069 1864 5 SI MM NOT_NAMED 1864-04-16 15:00:00 NR -11.5716 76.1393 main 2023 2017 _____P________ -1 -11.5716 76.1393 99 6 116
1864102S07069 1864 5 SI MM NOT_NAMED 1864-04-16 18:00:00 NR -11.7006 76.4121 main 2026 2023 _____P________ -1 -11.7006 76.4121 99 6 116
1864102S07069 1864 5 SI MM NOT_NAMED 1864-04-16 21:00:00 NR -11.8294 76.6897 main 2029 2029 _____P________ -1 -11.8294 76.6897 99 6 115
1864102S07069 1864 5 SI MM NOT_NAMED 1864-04-17 00:00:00 NR -11.9566 76.9670 main 2044 2040 _____P________ -1 -11.9566 76.9670 99 6 115
1864102S07069 1864 5 SI MM NOT_NAMED 1864-04-17 03:00:00 NR -12.0807 77.2388 main 2051 2047 _____P________ -1 -12.0807 77.2388 99 6 115
1864102S07069 1864 5 SI MM NOT_NAMED 1864-04-17 06:00:00 NR -12.2000 77.5000 reunion main 2056 2054 _____O________ -1 -12.2000 77.5000 99 9.90000 5 115
1864102S07069 1864 5 SI MM NOT_NAMED 1864-04-17 09:00:00 NR -12.3031 77.7181 main 2064 2062 _____P________ -1 -12.3031 77.7181 99 5 116
1864102S07069 1864 5 SI MM NOT_NAMED 1864-04-17 12:00:00 NR -12.4014 77.9261 main 2072 2070 _____P________ -1 -12.4014 77.9261 99 4 116
1864102S07069 1864 5 SI MM NOT_NAMED 1864-04-17 15:00:00 NR -12.4968 78.1282 main 2080 2078 _____P________ -1 -12.4968 78.1282 99 4 116
1864102S07069 1864 5 SI MM NOT_NAMED 1864-04-17 18:00:00 NR -12.5914 78.3287 main 2088 2085 _____P________ -1 -12.5914 78.3287 99 4 116
1864102S07069 1864 5 SI MM NOT_NAMED 1864-04-17 21:00:00 NR -12.6870 78.5318 main 2096 2094 _____P________ -1 -12.6870 78.5318 99 4 116
1864102S07069 1864 5 SI MM NOT_NAMED 1864-04-18 00:00:00 NR -12.7857 78.7418 main 2105 2103 _____P________ -1 -12.7857 78.7418 99 5 116
1864102S07069 1864 5 SI MM NOT_NAMED 1864-04-18 03:00:00 NR -12.8894 78.9631 main 2113 2112 _____P________ -1 -12.8894 78.9631 99 5 116
1864102S07069 1864 5 SI MM NOT_NAMED 1864-04-18 06:00:00 NR -13.0000 79.2000 reunion main 2123 2122 _____O________ -1 -13.0000 79.2000 99 9.90000 5 116
1864102S07069 1864 5 SI MM NOT_NAMED 1864-04-18 09:00:00 NR -13.1189 79.4557 main 2132 2132 _____P________ -1 -13.1189 79.4557 99 6 115
1864102S07069 1864 5 SI MM NOT_NAMED 1864-04-18 12:00:00 NR -13.2455 79.7288 main 2142 2142 _____P________ -1 -13.2455 79.7288 99 6 115
1864102S07069 1864 5 SI MM NOT_NAMED 1864-04-18 15:00:00 NR -13.3786 80.0171 main 2163 2162 _____P________ -1 -13.3786 80.0171 99 6 115
1864102S07069 1864 5 SI MM NOT_NAMED 1864-04-18 18:00:00 NR -13.5169 80.3181 main 2173 2173 _____P________ -1 -13.5169 80.3181 99 7 115
1864102S07069 1864 5 SI MM NOT_NAMED 1864-04-18 21:00:00 NR -13.6594 80.6294 main 2195 2195 _____P________ -1 -13.6594 80.6294 99 7 115
1864102S07069 1864 5 SI MM NOT_NAMED 1864-04-19 00:00:00 NR -13.8049 80.9484 main 2207 2207 _____P________ -1 -13.8049 80.9484 99 7 115
1864102S07069 1864 5 SI MM NOT_NAMED 1864-04-19 03:00:00 NR -13.9521 81.2728 main 2230 2230 _____P________ -1 -13.9521 81.2728 99 7 115
1864102S07069 1864 5 SI MM NOT_NAMED 1864-04-19 06:00:00 NR -14.1000 81.6000 main 2243 _____O________ -1 -14.1000 81.6000 99 9.90000 7 115

IBTrACS Databaseについて

本データベースは、米国NOAAが公開する1842年以降の世界の熱帯低気圧のベストトラックデータアーカイブInternational Best Track Archive for Climate Stewardship (IBTrACS)を、ウェブで閲覧しやすい形式に変換したものです。

最終更新日:2021-10-08